sensor_id;sensor_type;location;lat;lon;timestamp;P1;durP1;ratioP1;P2;durP2;ratioP2
2728;SDS011;1372;47.956;7.830;2023-03-01T00:01:53;13.20;;;8.43;;
2728;SDS011;1372;47.956;7.830;2023-03-01T00:04:22;13.13;;;9.57;;
2728;SDS011;1372;47.956;7.830;2023-03-01T00:06:50;15.07;;;9.80;;
2728;SDS011;1372;47.956;7.830;2023-03-01T00:09:20;16.33;;;11.30;;
2728;SDS011;1372;47.956;7.830;2023-03-01T00:11:49;13.90;;;10.20;;
2728;SDS011;1372;47.956;7.830;2023-03-01T00:14:18;13.40;;;9.53;;
2728;SDS011;1372;47.956;7.830;2023-03-01T00:16:47;14.50;;;10.00;;
2728;SDS011;1372;47.956;7.830;2023-03-01T00:19:19;14.67;;;10.67;;
2728;SDS011;1372;47.956;7.830;2023-03-01T00:21:49;16.83;;;9.83;;
2728;SDS011;1372;47.956;7.830;2023-03-01T00:24:18;13.93;;;9.93;;
2728;SDS011;1372;47.956;7.830;2023-03-01T00:26:48;13.07;;;9.60;;
2728;SDS011;1372;47.956;7.830;2023-03-01T00:29:22;14.57;;;10.53;;
2728;SDS011;1372;47.956;7.830;2023-03-01T00:31:54;14.87;;;9.90;;
2728;SDS011;1372;47.956;7.830;2023-03-01T00:34:22;10.53;;;8.87;;
2728;SDS011;1372;47.956;7.830;2023-03-01T00:36:51;15.33;;;9.67;;
2728;SDS011;1372;47.956;7.830;2023-03-01T00:39:20;14.97;;;10.03;;
2728;SDS011;1372;47.956;7.830;2023-03-01T00:41:50;11.10;;;9.20;;
2728;SDS011;1372;47.956;7.830;2023-03-01T00:44:19;17.27;;;10.47;;
2728;SDS011;1372;47.956;7.830;2023-03-01T00:46:47;13.83;;;9.70;;
2728;SDS011;1372;47.956;7.830;2023-03-01T00:49:16;14.37;;;9.73;;
2728;SDS011;1372;47.956;7.830;2023-03-01T00:51:45;14.13;;;9.73;;
2728;SDS011;1372;47.956;7.830;2023-03-01T00:54:13;11.40;;;8.80;;
2728;SDS011;1372;47.956;7.830;2023-03-01T00:56:42;15.00;;;9.67;;
2728;SDS011;1372;47.956;7.830;2023-03-01T00:59:12;15.53;;;9.53;;
2728;SDS011;1372;47.956;7.830;2023-03-01T01:01:40;14.47;;;10.37;;
2728;SDS011;1372;47.956;7.830;2023-03-01T01:04:10;10.77;;;8.40;;
2728;SDS011;1372;47.956;7.830;2023-03-01T01:06:41;15.70;;;10.40;;
2728;SDS011;1372;47.956;7.830;2023-03-01T01:09:12;11.47;;;8.57;;
2728;SDS011;1372;47.956;7.830;2023-03-01T01:11:44;14.13;;;9.90;;
2728;SDS011;1372;47.956;7.830;2023-03-01T01:14:17;14.40;;;9.63;;
2728;SDS011;1372;47.956;7.830;2023-03-01T01:16:46;12.30;;;9.07;;
2728;SDS011;1372;47.956;7.830;2023-03-01T01:19:17;15.33;;;9.57;;
2728;SDS011;1372;47.956;7.830;2023-03-01T01:21:46;15.33;;;9.87;;
2728;SDS011;1372;47.956;7.830;2023-03-01T01:24:15;12.20;;;10.00;;
2728;SDS011;1372;47.956;7.830;2023-03-01T01:26:44;12.37;;;8.77;;
2728;SDS011;1372;47.956;7.830;2023-03-01T01:29:13;15.00;;;8.93;;
2728;SDS011;1372;47.956;7.830;2023-03-01T01:31:43;14.20;;;9.40;;
2728;SDS011;1372;47.956;7.830;2023-03-01T01:34:13;13.83;;;9.60;;
2728;SDS011;1372;47.956;7.830;2023-03-01T01:36:47;12.80;;;9.30;;
2728;SDS011;1372;47.956;7.830;2023-03-01T01:39:16;13.80;;;9.17;;
2728;SDS011;1372;47.956;7.830;2023-03-01T01:41:45;14.00;;;10.03;;
2728;SDS011;1372;47.956;7.830;2023-03-01T01:44:19;12.23;;;9.93;;
2728;SDS011;1372;47.956;7.830;2023-03-01T01:46:50;12.97;;;9.60;;
2728;SDS011;1372;47.956;7.830;2023-03-01T01:49:24;20.83;;;10.77;;
2728;SDS011;1372;47.956;7.830;2023-03-01T01:52:02;12.17;;;8.77;;
2728;SDS011;1372;47.956;7.830;2023-03-01T01:54:38;13.77;;;9.93;;
2728;SDS011;1372;47.956;7.830;2023-03-01T01:57:14;14.20;;;9.70;;
2728;SDS011;1372;47.956;7.830;2023-03-01T01:59:51;13.97;;;9.90;;
2728;SDS011;1372;47.956;7.830;2023-03-01T02:02:24;14.87;;;9.37;;
2728;SDS011;1372;47.956;7.830;2023-03-01T02:05:00;14.53;;;10.10;;
2728;SDS011;1372;47.956;7.830;2023-03-01T02:07:38;12.43;;;8.80;;
2728;SDS011;1372;47.956;7.830;2023-03-01T02:10:08;11.13;;;9.20;;
2728;SDS011;1372;47.956;7.830;2023-03-01T02:12:37;15.23;;;10.20;;
2728;SDS011;1372;47.956;7.830;2023-03-01T02:15:10;14.00;;;9.87;;
2728;SDS011;1372;47.956;7.830;2023-03-01T02:17:38;16.57;;;10.87;;
2728;SDS011;1372;47.956;7.830;2023-03-01T02:20:10;13.83;;;8.77;;
2728;SDS011;1372;47.956;7.830;2023-03-01T02:22:46;14.67;;;9.87;;
2728;SDS011;1372;47.956;7.830;2023-03-01T02:25:24;17.53;;;10.30;;
2728;SDS011;1372;47.956;7.830;2023-03-01T02:27:59;14.20;;;10.20;;
2728;SDS011;1372;47.956;7.830;2023-03-01T02:30:40;12.97;;;10.20;;
2728;SDS011;1372;47.956;7.830;2023-03-01T02:33:24;12.30;;;9.10;;
2728;SDS011;1372;47.956;7.830;2023-03-01T02:35:54;16.33;;;11.30;;
2728;SDS011;1372;47.956;7.830;2023-03-01T02:38:24;16.67;;;10.37;;
2728;SDS011;1372;47.956;7.830;2023-03-01T02:40:53;17.50;;;10.03;;
2728;SDS011;1372;47.956;7.830;2023-03-01T02:43:29;12.23;;;9.10;;
2728;SDS011;1372;47.956;7.830;2023-03-01T02:46:02;14.77;;;10.40;;
2728;SDS011;1372;47.956;7.830;2023-03-01T02:48:40;14.70;;;10.27;;
2728;SDS011;1372;47.956;7.830;2023-03-01T02:51:19;14.13;;;9.17;;
2728;SDS011;1372;47.956;7.830;2023-03-01T02:54:06;15.80;;;9.63;;
2728;SDS011;1372;47.956;7.830;2023-03-01T02:56:43;13.10;;;9.53;;
2728;SDS011;1372;47.956;7.830;2023-03-01T02:59:15;12.90;;;9.60;;
2728;SDS011;1372;47.956;7.830;2023-03-01T03:01:48;14.03;;;9.93;;
2728;SDS011;1372;47.956;7.830;2023-03-01T03:04:19;14.13;;;11.03;;
2728;SDS011;1372;47.956;7.830;2023-03-01T03:06:49;17.77;;;11.67;;
2728;SDS011;1372;47.956;7.830;2023-03-01T03:09:19;16.30;;;11.73;;
2728;SDS011;1372;47.956;7.830;2023-03-01T03:11:48;14.80;;;8.77;;
2728;SDS011;1372;47.956;7.830;2023-03-01T03:14:17;14.10;;;9.50;;
2728;SDS011;1372;47.956;7.830;2023-03-01T03:16:46;14.17;;;9.83;;
2728;SDS011;1372;47.956;7.830;2023-03-01T03:19:18;14.40;;;10.00;;
2728;SDS011;1372;47.956;7.830;2023-03-01T03:21:47;16.00;;;10.90;;
2728;SDS011;1372;47.956;7.830;2023-03-01T03:24:16;15.60;;;9.77;;
2728;SDS011;1372;47.956;7.830;2023-03-01T03:26:45;17.20;;;11.10;;
2728;SDS011;1372;47.956;7.830;2023-03-01T03:29:14;15.60;;;10.67;;
2728;SDS011;1372;47.956;7.830;2023-03-01T03:31:43;17.00;;;11.20;;
2728;SDS011;1372;47.956;7.830;2023-03-01T03:34:13;18.90;;;11.60;;
2728;SDS011;1372;47.956;7.830;2023-03-01T03:36:44;14.77;;;9.80;;
2728;SDS011;1372;47.956;7.830;2023-03-01T03:39:13;17.13;;;10.80;;
2728;SDS011;1372;47.956;7.830;2023-03-01T03:41:42;14.00;;;10.00;;
2728;SDS011;1372;47.956;7.830;2023-03-01T03:44:11;17.50;;;10.57;;
2728;SDS011;1372;47.956;7.830;2023-03-01T03:46:40;15.30;;;10.10;;
2728;SDS011;1372;47.956;7.830;2023-03-01T03:49:09;16.43;;;10.67;;
2728;SDS011;1372;47.956;7.830;2023-03-01T03:51:41;15.80;;;9.87;;
2728;SDS011;1372;47.956;7.830;2023-03-01T03:54:13;17.37;;;11.00;;
2728;SDS011;1372;47.956;7.830;2023-03-01T03:56:42;16.23;;;10.93;;
2728;SDS011;1372;47.956;7.830;2023-03-01T03:59:10;15.30;;;10.67;;
2728;SDS011;1372;47.956;7.830;2023-03-01T04:01:39;19.80;;;11.03;;
2728;SDS011;1372;47.956;7.830;2023-03-01T04:04:08;17.63;;;10.67;;
2728;SDS011;1372;47.956;7.830;2023-03-01T04:06:36;15.47;;;10.53;;
2728;SDS011;1372;47.956;7.830;2023-03-01T04:09:07;21.30;;;11.47;;
2728;SDS011;1372;47.956;7.830;2023-03-01T04:11:35;15.77;;;11.60;;
2728;SDS011;1372;47.956;7.830;2023-03-01T04:14:05;16.57;;;10.93;;
2728;SDS011;1372;47.956;7.830;2023-03-01T04:16:34;19.87;;;11.60;;
2728;SDS011;1372;47.956;7.830;2023-03-01T04:19:03;15.87;;;10.60;;
2728;SDS011;1372;47.956;7.830;2023-03-01T04:21:33;18.10;;;10.80;;
2728;SDS011;1372;47.956;7.830;2023-03-01T04:24:03;18.40;;;11.37;;
2728;SDS011;1372;47.956;7.830;2023-03-01T04:26:35;18.30;;;11.67;;
2728;SDS011;1372;47.956;7.830;2023-03-01T04:29:03;21.47;;;11.27;;
2728;SDS011;1372;47.956;7.830;2023-03-01T04:31:32;14.43;;;11.20;;
2728;SDS011;1372;47.956;7.830;2023-03-01T04:34:01;15.53;;;11.77;;
2728;SDS011;1372;47.956;7.830;2023-03-01T04:36:30;20.47;;;11.50;;
2728;SDS011;1372;47.956;7.830;2023-03-01T04:38:59;17.17;;;11.87;;
2728;SDS011;1372;47.956;7.830;2023-03-01T04:41:40;15.10;;;10.67;;
2728;SDS011;1372;47.956;7.830;2023-03-01T04:44:10;16.90;;;10.70;;
2728;SDS011;1372;47.956;7.830;2023-03-01T04:46:39;15.00;;;11.13;;
2728;SDS011;1372;47.956;7.830;2023-03-01T04:49:10;15.10;;;10.90;;
2728;SDS011;1372;47.956;7.830;2023-03-01T04:51:39;17.27;;;12.13;;
2728;SDS011;1372;47.956;7.830;2023-03-01T04:54:08;15.47;;;12.33;;
2728;SDS011;1372;47.956;7.830;2023-03-01T04:56:37;17.60;;;12.90;;
2728;SDS011;1372;47.956;7.830;2023-03-01T04:59:07;16.67;;;11.20;;
2728;SDS011;1372;47.956;7.830;2023-03-01T05:01:36;16.27;;;11.30;;
2728;SDS011;1372;47.956;7.830;2023-03-01T05:04:05;17.60;;;10.57;;
2728;SDS011;1372;47.956;7.830;2023-03-01T05:06:34;12.27;;;9.47;;
2728;SDS011;1372;47.956;7.830;2023-03-01T05:09:03;17.50;;;12.13;;
2728;SDS011;1372;47.956;7.830;2023-03-01T05:11:32;16.90;;;11.10;;
2728;SDS011;1372;47.956;7.830;2023-03-01T05:14:02;20.93;;;12.00;;
2728;SDS011;1372;47.956;7.830;2023-03-01T05:16:34;15.60;;;11.87;;
2728;SDS011;1372;47.956;7.830;2023-03-01T05:19:04;16.30;;;11.40;;
2728;SDS011;1372;47.956;7.830;2023-03-01T05:21:38;17.13;;;11.10;;
2728;SDS011;1372;47.956;7.830;2023-03-01T05:24:28;39.10;;;22.40;;
2728;SDS011;1372;47.956;7.830;2023-03-01T05:26:59;69.40;;;35.43;;
2728;SDS011;1372;47.956;7.830;2023-03-01T05:29:28;47.37;;;24.90;;
2728;SDS011;1372;47.956;7.830;2023-03-01T05:32:03;34.77;;;20.97;;
2728;SDS011;1372;47.956;7.830;2023-03-01T05:34:33;19.13;;;14.03;;
2728;SDS011;1372;47.956;7.830;2023-03-01T05:37:03;18.57;;;13.67;;
2728;SDS011;1372;47.956;7.830;2023-03-01T05:39:34;46.10;;;34.90;;
2728;SDS011;1372;47.956;7.830;2023-03-01T05:42:03;27.73;;;19.90;;
2728;SDS011;1372;47.956;7.830;2023-03-01T05:44:34;24.53;;;18.77;;
2728;SDS011;1372;47.956;7.830;2023-03-01T05:47:05;26.30;;;18.17;;
2728;SDS011;1372;47.956;7.830;2023-03-01T05:49:36;25.53;;;17.40;;
2728;SDS011;1372;47.956;7.830;2023-03-01T05:52:06;28.40;;;18.03;;
2728;SDS011;1372;47.956;7.830;2023-03-01T05:54:35;29.57;;;17.80;;
2728;SDS011;1372;47.956;7.830;2023-03-01T05:57:05;20.67;;;14.97;;
2728;SDS011;1372;47.956;7.830;2023-03-01T05:59:34;18.07;;;12.93;;
2728;SDS011;1372;47.956;7.830;2023-03-01T06:02:05;34.03;;;19.30;;
2728;SDS011;1372;47.956;7.830;2023-03-01T06:04:33;31.77;;;19.53;;
2728;SDS011;1372;47.956;7.830;2023-03-01T06:07:02;45.27;;;24.90;;
2728;SDS011;1372;47.956;7.830;2023-03-01T06:09:31;41.20;;;23.37;;
2728;SDS011;1372;47.956;7.830;2023-03-01T06:12:00;39.40;;;23.20;;
2728;SDS011;1372;47.956;7.830;2023-03-01T06:14:29;39.40;;;21.43;;
2728;SDS011;1372;47.956;7.830;2023-03-01T06:16:58;24.00;;;15.10;;
2728;SDS011;1372;47.956;7.830;2023-03-01T06:19:28;24.90;;;15.97;;
2728;SDS011;1372;47.956;7.830;2023-03-01T06:21:57;30.57;;;17.20;;
2728;SDS011;1372;47.956;7.830;2023-03-01T06:24:26;25.83;;;16.47;;
2728;SDS011;1372;47.956;7.830;2023-03-01T06:26:55;20.93;;;13.70;;
2728;SDS011;1372;47.956;7.830;2023-03-01T06:29:24;17.17;;;12.73;;
2728;SDS011;1372;47.956;7.830;2023-03-01T06:31:55;19.70;;;13.60;;
2728;SDS011;1372;47.956;7.830;2023-03-01T06:34:23;22.30;;;13.50;;
2728;SDS011;1372;47.956;7.830;2023-03-01T06:36:54;19.03;;;13.90;;
2728;SDS011;1372;47.956;7.830;2023-03-01T06:39:23;16.40;;;12.63;;
2728;SDS011;1372;47.956;7.830;2023-03-01T06:42:01;17.57;;;14.10;;
2728;SDS011;1372;47.956;7.830;2023-03-01T06:44:30;17.53;;;12.37;;
2728;SDS011;1372;47.956;7.830;2023-03-01T06:47:01;21.67;;;15.37;;
2728;SDS011;1372;47.956;7.830;2023-03-01T06:49:32;20.67;;;12.37;;
2728;SDS011;1372;47.956;7.830;2023-03-01T06:52:02;20.87;;;12.97;;
2728;SDS011;1372;47.956;7.830;2023-03-01T06:54:32;19.90;;;12.73;;
2728;SDS011;1372;47.956;7.830;2023-03-01T06:57:03;19.40;;;13.23;;
2728;SDS011;1372;47.956;7.830;2023-03-01T06:59:32;20.97;;;12.80;;
2728;SDS011;1372;47.956;7.830;2023-03-01T07:02:04;18.30;;;12.47;;
2728;SDS011;1372;47.956;7.830;2023-03-01T07:04:32;21.13;;;13.47;;
2728;SDS011;1372;47.956;7.830;2023-03-01T07:07:03;20.83;;;12.33;;
2728;SDS011;1372;47.956;7.830;2023-03-01T07:09:33;20.77;;;12.67;;
2728;SDS011;1372;47.956;7.830;2023-03-01T07:12:02;19.93;;;12.50;;
2728;SDS011;1372;47.956;7.830;2023-03-01T07:14:31;16.20;;;11.20;;
2728;SDS011;1372;47.956;7.830;2023-03-01T07:17:00;18.23;;;11.47;;
2728;SDS011;1372;47.956;7.830;2023-03-01T07:19:29;17.57;;;11.87;;
2728;SDS011;1372;47.956;7.830;2023-03-01T07:21:58;17.17;;;12.10;;
2728;SDS011;1372;47.956;7.830;2023-03-01T07:24:28;16.00;;;12.53;;
2728;SDS011;1372;47.956;7.830;2023-03-01T07:26:57;18.20;;;12.00;;
2728;SDS011;1372;47.956;7.830;2023-03-01T07:29:26;19.27;;;12.77;;
2728;SDS011;1372;47.956;7.830;2023-03-01T07:31:58;18.40;;;12.23;;
2728;SDS011;1372;47.956;7.830;2023-03-01T07:34:27;14.57;;;11.40;;
2728;SDS011;1372;47.956;7.830;2023-03-01T07:36:55;17.77;;;12.83;;
2728;SDS011;1372;47.956;7.830;2023-03-01T07:39:24;16.60;;;12.20;;
2728;SDS011;1372;47.956;7.830;2023-03-01T07:41:55;19.90;;;12.33;;
2728;SDS011;1372;47.956;7.830;2023-03-01T07:44:29;19.23;;;12.47;;
2728;SDS011;1372;47.956;7.830;2023-03-01T07:47:04;16.97;;;12.03;;
2728;SDS011;1372;47.956;7.830;2023-03-01T07:49:33;22.50;;;14.30;;
2728;SDS011;1372;47.956;7.830;2023-03-01T07:52:02;17.67;;;13.17;;
2728;SDS011;1372;47.956;7.830;2023-03-01T07:54:33;16.23;;;10.90;;
2728;SDS011;1372;47.956;7.830;2023-03-01T07:57:03;22.63;;;14.13;;
2728;SDS011;1372;47.956;7.830;2023-03-01T07:59:32;19.10;;;12.77;;
2728;SDS011;1372;47.956;7.830;2023-03-01T08:02:00;16.60;;;11.80;;
2728;SDS011;1372;47.956;7.830;2023-03-01T08:04:30;18.27;;;12.30;;
2728;SDS011;1372;47.956;7.830;2023-03-01T08:06:59;21.17;;;13.57;;
2728;SDS011;1372;47.956;7.830;2023-03-01T08:09:28;20.47;;;12.63;;
2728;SDS011;1372;47.956;7.830;2023-03-01T08:11:57;21.10;;;13.77;;
2728;SDS011;1372;47.956;7.830;2023-03-01T08:14:29;16.43;;;11.87;;
2728;SDS011;1372;47.956;7.830;2023-03-01T08:16:57;21.93;;;12.37;;
2728;SDS011;1372;47.956;7.830;2023-03-01T08:19:30;21.97;;;13.00;;
2728;SDS011;1372;47.956;7.830;2023-03-01T08:21:59;19.80;;;13.20;;
2728;SDS011;1372;47.956;7.830;2023-03-01T08:24:29;21.77;;;13.83;;
2728;SDS011;1372;47.956;7.830;2023-03-01T08:27:04;24.13;;;14.77;;
2728;SDS011;1372;47.956;7.830;2023-03-01T08:29:34;19.27;;;13.47;;
2728;SDS011;1372;47.956;7.830;2023-03-01T08:32:06;20.83;;;15.43;;
2728;SDS011;1372;47.956;7.830;2023-03-01T08:34:35;20.60;;;13.13;;
2728;SDS011;1372;47.956;7.830;2023-03-01T08:37:07;20.23;;;14.30;;
2728;SDS011;1372;47.956;7.830;2023-03-01T08:39:36;22.00;;;12.17;;
2728;SDS011;1372;47.956;7.830;2023-03-01T08:42:05;19.40;;;13.77;;
2728;SDS011;1372;47.956;7.830;2023-03-01T08:44:37;18.90;;;12.70;;
2728;SDS011;1372;47.956;7.830;2023-03-01T08:47:09;21.00;;;13.10;;
2728;SDS011;1372;47.956;7.830;2023-03-01T08:49:38;19.93;;;12.63;;
2728;SDS011;1372;47.956;7.830;2023-03-01T08:52:09;18.47;;;13.17;;
2728;SDS011;1372;47.956;7.830;2023-03-01T08:54:40;20.10;;;13.53;;
2728;SDS011;1372;47.956;7.830;2023-03-01T08:57:10;17.57;;;11.80;;
2728;SDS011;1372;47.956;7.830;2023-03-01T08:59:40;22.43;;;13.67;;
2728;SDS011;1372;47.956;7.830;2023-03-01T09:02:12;24.13;;;15.20;;
2728;SDS011;1372;47.956;7.830;2023-03-01T09:04:45;21.17;;;13.57;;
2728;SDS011;1372;47.956;7.830;2023-03-01T09:07:14;22.27;;;12.70;;
2728;SDS011;1372;47.956;7.830;2023-03-01T09:09:43;20.90;;;12.93;;
2728;SDS011;1372;47.956;7.830;2023-03-01T09:12:12;21.73;;;13.90;;
2728;SDS011;1372;47.956;7.830;2023-03-01T09:14:42;20.90;;;13.10;;
2728;SDS011;1372;47.956;7.830;2023-03-01T09:17:11;19.43;;;12.70;;
2728;SDS011;1372;47.956;7.830;2023-03-01T09:19:41;19.30;;;12.97;;
2728;SDS011;1372;47.956;7.830;2023-03-01T09:22:12;21.50;;;13.20;;
2728;SDS011;1372;47.956;7.830;2023-03-01T09:24:41;20.40;;;13.10;;
2728;SDS011;1372;47.956;7.830;2023-03-01T09:27:10;17.90;;;12.43;;
2728;SDS011;1372;47.956;7.830;2023-03-01T09:29:43;19.90;;;12.70;;
2728;SDS011;1372;47.956;7.830;2023-03-01T09:32:15;18.87;;;13.73;;
2728;SDS011;1372;47.956;7.830;2023-03-01T09:34:44;22.33;;;14.13;;
2728;SDS011;1372;47.956;7.830;2023-03-01T09:37:32;16.87;;;12.63;;
2728;SDS011;1372;47.956;7.830;2023-03-01T09:40:06;21.60;;;12.27;;
2728;SDS011;1372;47.956;7.830;2023-03-01T09:42:46;22.80;;;14.57;;
2728;SDS011;1372;47.956;7.830;2023-03-01T09:45:29;18.90;;;13.13;;
2728;SDS011;1372;47.956;7.830;2023-03-01T09:48:04;23.23;;;13.30;;
2728;SDS011;1372;47.956;7.830;2023-03-01T09:50:41;20.77;;;13.13;;
2728;SDS011;1372;47.956;7.830;2023-03-01T09:53:15;18.53;;;12.53;;
2728;SDS011;1372;47.956;7.830;2023-03-01T09:55:49;19.70;;;13.20;;
2728;SDS011;1372;47.956;7.830;2023-03-01T09:58:32;20.20;;;13.37;;
2728;SDS011;1372;47.956;7.830;2023-03-01T10:01:18;18.60;;;13.40;;
2728;SDS011;1372;47.956;7.830;2023-03-01T10:04:04;21.20;;;13.20;;
2728;SDS011;1372;47.956;7.830;2023-03-01T10:07:06;17.43;;;12.60;;
2728;SDS011;1372;47.956;7.830;2023-03-01T10:09:50;19.37;;;13.20;;
2728;SDS011;1372;47.956;7.830;2023-03-01T10:12:20;22.70;;;12.63;;
2728;SDS011;1372;47.956;7.830;2023-03-01T10:14:55;19.47;;;13.87;;
2728;SDS011;1372;47.956;7.830;2023-03-01T10:17:35;18.80;;;13.30;;
2728;SDS011;1372;47.956;7.830;2023-03-01T10:20:14;20.73;;;14.03;;
2728;SDS011;1372;47.956;7.830;2023-03-01T10:22:48;22.10;;;13.67;;
2728;SDS011;1372;47.956;7.830;2023-03-01T10:25:25;20.70;;;14.80;;
2728;SDS011;1372;47.956;7.830;2023-03-01T10:28:15;22.67;;;14.20;;
2728;SDS011;1372;47.956;7.830;2023-03-01T10:30:46;20.53;;;14.33;;
2728;SDS011;1372;47.956;7.830;2023-03-01T10:33:16;22.07;;;14.20;;
2728;SDS011;1372;47.956;7.830;2023-03-01T10:35:52;20.50;;;13.87;;
2728;SDS011;1372;47.956;7.830;2023-03-01T10:38:21;15.63;;;12.60;;
2728;SDS011;1372;47.956;7.830;2023-03-01T10:40:51;23.43;;;14.60;;
2728;SDS011;1372;47.956;7.830;2023-03-01T10:43:24;20.80;;;13.13;;
2728;SDS011;1372;47.956;7.830;2023-03-01T10:45:53;25.03;;;14.20;;
2728;SDS011;1372;47.956;7.830;2023-03-01T10:48:24;21.53;;;14.80;;
2728;SDS011;1372;47.956;7.830;2023-03-01T10:51:04;20.87;;;13.70;;
2728;SDS011;1372;47.956;7.830;2023-03-01T10:53:38;20.40;;;14.10;;
2728;SDS011;1372;47.956;7.830;2023-03-01T10:56:11;21.50;;;13.60;;
2728;SDS011;1372;47.956;7.830;2023-03-01T10:58:56;21.00;;;13.57;;
2728;SDS011;1372;47.956;7.830;2023-03-01T11:01:30;24.90;;;13.37;;
2728;SDS011;1372;47.956;7.830;2023-03-01T11:04:09;25.30;;;15.47;;
2728;SDS011;1372;47.956;7.830;2023-03-01T11:06:43;22.00;;;14.57;;
2728;SDS011;1372;47.956;7.830;2023-03-01T11:09:25;21.30;;;12.77;;
2728;SDS011;1372;47.956;7.830;2023-03-01T11:12:05;19.27;;;13.80;;
2728;SDS011;1372;47.956;7.830;2023-03-01T11:14:46;23.57;;;15.07;;
2728;SDS011;1372;47.956;7.830;2023-03-01T11:17:17;22.93;;;14.40;;
2728;SDS011;1372;47.956;7.830;2023-03-01T11:20:00;27.37;;;15.90;;
2728;SDS011;1372;47.956;7.830;2023-03-01T11:22:37;21.33;;;14.97;;
2728;SDS011;1372;47.956;7.830;2023-03-01T11:25:15;20.53;;;13.80;;
2728;SDS011;1372;47.956;7.830;2023-03-01T11:27:52;21.63;;;14.60;;
2728;SDS011;1372;47.956;7.830;2023-03-01T11:30:23;23.20;;;16.10;;
2728;SDS011;1372;47.956;7.830;2023-03-01T11:33:06;26.03;;;17.87;;
2728;SDS011;1372;47.956;7.830;2023-03-01T11:35:50;21.90;;;15.30;;
2728;SDS011;1372;47.956;7.830;2023-03-01T11:38:29;25.83;;;15.20;;
2728;SDS011;1372;47.956;7.830;2023-03-01T11:41:05;22.70;;;15.20;;
2728;SDS011;1372;47.956;7.830;2023-03-01T11:43:43;18.40;;;13.73;;
2728;SDS011;1372;47.956;7.830;2023-03-01T11:46:31;20.03;;;13.50;;
2728;SDS011;1372;47.956;7.830;2023-03-01T11:49:35;18.87;;;13.17;;
2728;SDS011;1372;47.956;7.830;2023-03-01T11:52:41;20.10;;;13.33;;
2728;SDS011;1372;47.956;7.830;2023-03-01T11:55:25;19.57;;;14.77;;
2728;SDS011;1372;47.956;7.830;2023-03-01T11:58:08;21.10;;;14.80;;
2728;SDS011;1372;47.956;7.830;2023-03-01T12:04:16;22.13;;;14.90;;
2728;SDS011;1372;47.956;7.830;2023-03-01T12:07:16;21.70;;;14.17;;
2728;SDS011;1372;47.956;7.830;2023-03-01T12:10:12;21.70;;;14.60;;
2728;SDS011;1372;47.956;7.830;2023-03-01T12:12:56;21.83;;;13.90;;
2728;SDS011;1372;47.956;7.830;2023-03-01T12:16:06;19.67;;;13.63;;
2728;SDS011;1372;47.956;7.830;2023-03-01T12:19:07;19.47;;;13.87;;
2728;SDS011;1372;47.956;7.830;2023-03-01T12:21:58;18.63;;;13.70;;
2728;SDS011;1372;47.956;7.830;2023-03-01T12:24:50;18.70;;;13.07;;
2728;SDS011;1372;47.956;7.830;2023-03-01T12:28:11;20.97;;;13.20;;
2728;SDS011;1372;47.956;7.830;2023-03-01T12:31:08;23.37;;;13.90;;
2728;SDS011;1372;47.956;7.830;2023-03-01T12:34:03;16.57;;;12.10;;
2728;SDS011;1372;47.956;7.830;2023-03-01T12:36:53;20.20;;;13.10;;
2728;SDS011;1372;47.956;7.830;2023-03-01T12:39:39;18.43;;;11.60;;
2728;SDS011;1372;47.956;7.830;2023-03-01T12:42:23;19.13;;;12.63;;
2728;SDS011;1372;47.956;7.830;2023-03-01T12:48:09;25.17;;;14.30;;
2728;SDS011;1372;47.956;7.830;2023-03-01T12:50:51;15.40;;;11.93;;
2728;SDS011;1372;47.956;7.830;2023-03-01T12:53:23;18.30;;;11.93;;
2728;SDS011;1372;47.956;7.830;2023-03-01T12:55:58;18.77;;;12.00;;
2728;SDS011;1372;47.956;7.830;2023-03-01T12:58:33;16.97;;;12.83;;
2728;SDS011;1372;47.956;7.830;2023-03-01T13:01:21;15.77;;;11.40;;
2728;SDS011;1372;47.956;7.830;2023-03-01T13:04:14;15.07;;;10.50;;
2728;SDS011;1372;47.956;7.830;2023-03-01T13:06:58;14.83;;;11.80;;
2728;SDS011;1372;47.956;7.830;2023-03-01T13:09:40;19.40;;;12.00;;
2728;SDS011;1372;47.956;7.830;2023-03-01T13:15:30;16.63;;;11.20;;
2728;SDS011;1372;47.956;7.830;2023-03-01T13:18:25;19.80;;;11.70;;
2728;SDS011;1372;47.956;7.830;2023-03-01T13:21:00;18.23;;;11.37;;
2728;SDS011;1372;47.956;7.830;2023-03-01T13:23:35;16.00;;;11.60;;
2728;SDS011;1372;47.956;7.830;2023-03-01T13:26:10;15.07;;;9.87;;
2728;SDS011;1372;47.956;7.830;2023-03-01T13:34:43;14.33;;;10.40;;
2728;SDS011;1372;47.956;7.830;2023-03-01T13:37:31;13.43;;;10.00;;
2728;SDS011;1372;47.956;7.830;2023-03-01T13:40:08;12.80;;;8.90;;
2728;SDS011;1372;47.956;7.830;2023-03-01T13:43:30;11.50;;;9.10;;
2728;SDS011;1372;47.956;7.830;2023-03-01T13:46:09;16.00;;;10.33;;
2728;SDS011;1372;47.956;7.830;2023-03-01T13:48:45;14.33;;;10.53;;
2728;SDS011;1372;47.956;7.830;2023-03-01T13:51:20;13.47;;;10.37;;
2728;SDS011;1372;47.956;7.830;2023-03-01T13:53:52;17.67;;;11.03;;
2728;SDS011;1372;47.956;7.830;2023-03-01T13:56:24;12.60;;;9.90;;
2728;SDS011;1372;47.956;7.830;2023-03-01T13:58:58;14.10;;;10.43;;
2728;SDS011;1372;47.956;7.830;2023-03-01T14:01:31;15.40;;;11.50;;
2728;SDS011;1372;47.956;7.830;2023-03-01T14:04:03;13.57;;;10.60;;
2728;SDS011;1372;47.956;7.830;2023-03-01T14:06:47;13.07;;;11.00;;
2728;SDS011;1372;47.956;7.830;2023-03-01T14:09:18;13.20;;;10.10;;
2728;SDS011;1372;47.956;7.830;2023-03-01T14:12:06;15.50;;;11.63;;
2728;SDS011;1372;47.956;7.830;2023-03-01T14:14:56;15.83;;;11.40;;
2728;SDS011;1372;47.956;7.830;2023-03-01T14:17:37;13.53;;;9.93;;
2728;SDS011;1372;47.956;7.830;2023-03-01T14:20:21;15.43;;;10.27;;
2728;SDS011;1372;47.956;7.830;2023-03-01T14:22:53;15.77;;;12.30;;
2728;SDS011;1372;47.956;7.830;2023-03-01T14:25:26;16.00;;;11.60;;
2728;SDS011;1372;47.956;7.830;2023-03-01T14:27:58;13.10;;;10.00;;
2728;SDS011;1372;47.956;7.830;2023-03-01T14:30:36;17.73;;;10.83;;
2728;SDS011;1372;47.956;7.830;2023-03-01T14:33:21;14.90;;;10.00;;
2728;SDS011;1372;47.956;7.830;2023-03-01T14:35:55;15.33;;;11.37;;
2728;SDS011;1372;47.956;7.830;2023-03-01T14:38:30;15.77;;;10.90;;
2728;SDS011;1372;47.956;7.830;2023-03-01T14:41:03;14.40;;;11.03;;
2728;SDS011;1372;47.956;7.830;2023-03-01T14:43:36;13.17;;;10.83;;
2728;SDS011;1372;47.956;7.830;2023-03-01T14:46:17;15.27;;;11.60;;
2728;SDS011;1372;47.956;7.830;2023-03-01T14:48:49;15.20;;;11.03;;
2728;SDS011;1372;47.956;7.830;2023-03-01T14:51:19;13.77;;;10.30;;
2728;SDS011;1372;47.956;7.830;2023-03-01T14:53:49;14.10;;;11.03;;
2728;SDS011;1372;47.956;7.830;2023-03-01T14:56:18;16.07;;;11.10;;
2728;SDS011;1372;47.956;7.830;2023-03-01T14:58:50;15.20;;;10.07;;
2728;SDS011;1372;47.956;7.830;2023-03-01T15:01:21;16.27;;;10.77;;
2728;SDS011;1372;47.956;7.830;2023-03-01T15:03:50;16.60;;;11.20;;
2728;SDS011;1372;47.956;7.830;2023-03-01T15:06:21;14.80;;;11.23;;
2728;SDS011;1372;47.956;7.830;2023-03-01T15:08:51;18.13;;;13.03;;
2728;SDS011;1372;47.956;7.830;2023-03-01T15:11:24;13.00;;;10.30;;
2728;SDS011;1372;47.956;7.830;2023-03-01T15:13:57;16.97;;;12.30;;
2728;SDS011;1372;47.956;7.830;2023-03-01T15:16:28;16.80;;;11.80;;
2728;SDS011;1372;47.956;7.830;2023-03-01T15:19:00;14.60;;;11.47;;
2728;SDS011;1372;47.956;7.830;2023-03-01T15:21:32;14.80;;;11.70;;
2728;SDS011;1372;47.956;7.830;2023-03-01T15:24:05;15.90;;;12.10;;
2728;SDS011;1372;47.956;7.830;2023-03-01T15:26:50;16.67;;;11.97;;
2728;SDS011;1372;47.956;7.830;2023-03-01T15:29:24;22.23;;;15.30;;
2728;SDS011;1372;47.956;7.830;2023-03-01T15:31:58;21.03;;;14.40;;
2728;SDS011;1372;47.956;7.830;2023-03-01T15:34:31;19.03;;;15.50;;
2728;SDS011;1372;47.956;7.830;2023-03-01T15:37:04;20.83;;;15.40;;
2728;SDS011;1372;47.956;7.830;2023-03-01T15:39:37;22.33;;;16.93;;
2728;SDS011;1372;47.956;7.830;2023-03-01T15:42:11;23.83;;;16.07;;
2728;SDS011;1372;47.956;7.830;2023-03-01T15:44:43;22.40;;;15.50;;
2728;SDS011;1372;47.956;7.830;2023-03-01T15:47:25;20.97;;;15.37;;